Time;durP1;ratioP1;P1;durP2;ratioP2;P2;SDS_P1;SDS_P2;PMS_P1;PMS_P2;Temp;Humidity;BMP_temperature;BMP_pressure;BME280_temperature;BME280_humidity;BME280_pressure;Samples;Min_cycle;Max_cycle;Signal;HPM_P1;HPM_P2
2022/12/31 00:02:22;;;;;;;11.20;10.07;;;5.70;99.90;;;;;;6249837;28;20478;-65
2022/12/31 00:05:25;;;;;;;11.63;9.90;;;5.70;99.90;;;;;;6249792;28;20782;-63
2022/12/31 00:08:30;;;;;;;12.00;8.30;;;5.60;99.90;;;;;;6249244;28;20478;-63
2022/12/31 00:11:35;;;;;;;10.03;9.00;;;5.60;99.90;;;;;;6240847;28;20467;-62
2022/12/31 00:14:38;;;;;;;12.47;9.07;;;5.50;99.90;;;;;;6249879;28;20471;-63
2022/12/31 00:17:41;;;;;;;10.30;9.20;;;5.60;99.90;;;;;;6253249;28;20454;-63
2022/12/31 00:20:45;;;;;;;11.23;8.33;;;5.50;99.90;;;;;;6275612;28;20482;-63
2022/12/31 00:23:49;;;;;;;11.67;8.27;;;5.50;99.90;;;;;;6273426;28;20470;-62
2022/12/31 00:26:52;;;;;;;11.50;9.80;;;5.60;99.90;;;;;;6254522;28;20479;-62
2022/12/31 00:29:56;;;;;;;12.20;9.53;;;5.50;99.90;;;;;;6254798;28;20483;-61
2022/12/31 00:33:06;;;;;;;11.30;9.00;;;5.50;99.90;;;;;;6254385;28;20490;-62
2022/12/31 00:36:12;;;;;;;12.20;9.00;;;5.60;99.90;;;;;;6254621;28;20481;-63
2022/12/31 00:39:17;;;;;;;11.60;9.20;;;5.50;99.90;;;;;;6253640;28;20474;-63
2022/12/31 00:42:20;;;;;;;10.63;9.17;;;5.60;99.90;;;;;;6254239;28;20478;-63
2022/12/31 00:45:23;;;;;;;12.60;8.97;;;5.60;99.90;;;;;;6254337;28;20470;-63
2022/12/31 00:48:27;;;;;;;9.43;8.13;;;5.60;99.90;;;;;;6254793;28;20475;-64
2022/12/31 00:51:30;;;;;;;10.47;8.97;;;5.60;99.90;;;;;;6254492;28;20899;-63
2022/12/31 00:54:35;;;;;;;14.10;12.00;;;5.60;99.90;;;;;;6253718;28;20479;-64
2022/12/31 00:57:38;;;;;;;11.17;10.10;;;5.50;99.90;;;;;;6252834;28;20475;-63
2022/12/31 01:00:42;;;;;;;13.80;10.63;;;5.50;99.90;;;;;;6253256;28;20471;-63
2022/12/31 01:03:46;;;;;;;10.80;9.33;;;5.50;99.90;;;;;;6253426;28;20470;-63
2022/12/31 01:06:49;;;;;;;10.93;9.03;;;5.50;99.90;;;;;;6253394;28;20482;-63
2022/12/31 01:09:53;;;;;;;13.80;10.23;;;5.50;99.90;;;;;;6253543;28;20471;-62
2022/12/31 01:12:57;;;;;;;13.63;9.40;;;5.50;99.90;;;;;;6252837;28;20493;-63
2022/12/31 01:16:07;;;;;;;10.43;9.23;;;5.50;99.90;;;;;;6249086;28;20478;-64
2022/12/31 01:19:13;;;;;;;14.50;9.63;;;5.50;99.90;;;;;;6252924;28;20475;-63
2022/12/31 01:22:16;;;;;;;11.60;9.63;;;5.50;99.90;;;;;;6252887;28;20833;-63
2022/12/31 01:25:21;;;;;;;12.10;9.93;;;5.50;99.90;;;;;;6253316;28;20468;-63
2022/12/31 01:28:24;;;;;;;18.37;14.13;;;5.60;99.90;;;;;;6247798;28;20478;-63
2022/12/31 01:31:28;;;;;;;17.27;13.77;;;5.60;99.90;;;;;;6253089;28;20471;-64
2022/12/31 01:34:31;;;;;;;16.33;14.63;;;5.60;99.90;;;;;;6253408;28;20482;-64
2022/12/31 01:37:34;;;;;;;13.73;12.37;;;5.60;99.90;;;;;;6252950;28;20463;-64
2022/12/31 01:40:40;;;;;;;14.47;12.20;;;5.60;99.90;;;;;;6252675;28;20491;-65
2022/12/31 01:43:49;;;;;;;14.50;10.17;;;5.60;99.90;;;;;;6252793;28;20486;-64
2022/12/31 01:46:54;;;;;;;11.17;9.00;;;5.60;99.90;;;;;;6252629;28;20483;-65
2022/12/31 01:50:03;;;;;;;12.10;9.77;;;5.50;99.90;;;;;;6252846;28;20741;-64
2022/12/31 01:53:08;;;;;;;12.30;10.40;;;5.50;99.90;;;;;;6253498;28;20435;-64
2022/12/31 01:56:13;;;;;;;10.07;9.07;;;5.40;99.90;;;;;;6252996;28;20756;-64
2022/12/31 01:59:18;;;;;;;16.37;12.57;;;5.40;99.90;;;;;;6253347;28;20466;-64
2022/12/31 02:02:22;;;;;;;23.37;16.77;;;5.30;99.90;;;;;;6253337;28;20467;-63
2022/12/31 02:05:30;;;;;;;20.80;17.00;;;5.20;99.90;;;;;;6252597;28;20466;-64
2022/12/31 02:08:35;;;;;;;21.73;16.00;;;5.10;99.90;;;;;;6252944;28;20967;-64
2022/12/31 02:11:45;;;;;;;22.93;16.00;;;5.00;99.90;;;;;;6252720;28;20467;-64
2022/12/31 02:14:53;;;;;;;19.33;16.20;;;5.00;99.90;;;;;;6252311;28;20467;-64
2022/12/31 02:18:03;;;;;;;19.83;15.70;;;4.90;99.90;;;;;;6257943;28;20974;-64
2022/12/31 02:21:31;;;;;;;25.30;16.73;;;4.90;99.90;;;;;;6276607;28;20810;-64
2022/12/31 02:25:08;;;;;;;22.67;16.40;;;4.90;99.90;;;;;;6276718;28;20490;-63
2022/12/31 02:28:25;;;;;;;24.70;15.67;;;4.80;99.90;;;;;;6276586;28;20490;-63
2022/12/31 02:31:34;;;;;;;17.83;15.77;;;4.90;99.90;;;;;;6276789;28;20801;-63
2022/12/31 02:34:41;;;;;;;20.17;14.27;;;5.00;99.90;;;;;;6276530;28;20573;-63
2022/12/31 02:37:48;;;;;;;18.93;15.67;;;5.10;99.90;;;;;;6276744;28;20466;-63
2022/12/31 02:40:53;;;;;;;19.13;15.23;;;5.10;99.90;;;;;;6276571;28;20470;-64
2022/12/31 02:43:56;;;;;;;27.87;16.00;;;5.20;99.90;;;;;;6275198;28;20481;-64
2022/12/31 02:47:10;;;;;;;14.07;12.67;;;5.20;99.90;;;;;;6276102;28;20450;-64
2022/12/31 02:50:30;;;;;;;14.33;12.30;;;5.30;99.90;;;;;;6276610;28;20437;-64
2022/12/31 02:53:52;;;;;;;10.10;8.70;;;5.30;99.90;;;;;;6276149;28;20475;-63
2022/12/31 02:57:05;;;;;;;9.00;7.97;;;5.40;99.90;;;;;;6275942;28;20467;-65
2022/12/31 03:03:35;;;;;;;11.80;7.47;;;5.30;99.90;;;;;;6251408;28;20472;-65
2022/12/31 03:06:39;;;;;;;8.97;7.70;;;5.30;99.90;;;;;;6251004;28;20958;-66
2022/12/31 03:09:43;;;;;;;9.80;7.60;;;5.30;99.90;;;;;;6250783;28;20478;-67
2022/12/31 03:12:47;;;;;;;8.50;6.97;;;5.30;99.90;;;;;;6250810;28;20477;-66
2022/12/31 03:15:50;;;;;;;8.73;6.57;;;5.30;99.90;;;;;;6251188;28;20482;-66
2022/12/31 03:22:28;;;;;;;8.67;6.90;;;5.30;99.90;;;;;;6250318;28;20959;-66
2022/12/31 03:25:34;;;;;;;12.93;7.60;;;5.40;99.90;;;;;;6250537;28;20967;-66
2022/12/31 03:28:39;;;;;;;7.33;6.43;;;5.40;99.90;;;;;;6250487;28;20471;-66
2022/12/31 03:31:42;;;;;;;7.17;6.47;;;5.50;99.90;;;;;;6250394;28;20959;-66
2022/12/31 03:34:47;;;;;;;7.03;6.17;;;5.50;99.90;;;;;;6250356;28;20624;-66
2022/12/31 03:37:51;;;;;;;7.60;6.70;;;5.60;99.90;;;;;;6250675;28;20467;-65
2022/12/31 03:40:54;;;;;;;7.23;6.53;;;5.60;99.90;;;;;;6250862;28;20478;-65
2022/12/31 03:43:57;;;;;;;9.33;6.60;;;5.60;99.90;;;;;;6250778;28;20471;-66
2022/12/31 03:47:00;;;;;;;8.70;7.50;;;5.70;99.90;;;;;;6250706;28;20443;-65
2022/12/31 03:50:07;;;;;;;8.13;6.57;;;5.70;99.90;;;;;;6251421;28;21169;-65
2022/12/31 03:53:11;;;;;;;9.83;6.70;;;5.80;99.90;;;;;;6250674;28;20455;-65
2022/12/31 03:56:14;;;;;;;11.00;7.13;;;5.80;99.90;;;;;;6249311;28;20784;-65
2022/12/31 03:59:17;;;;;;;8.07;6.77;;;5.80;99.90;;;;;;6250622;28;20931;-65
2022/12/31 04:02:20;;;;;;;9.40;7.10;;;5.80;99.90;;;;;;6251271;28;20460;-65
2022/12/31 04:05:32;;;;;;;8.07;7.17;;;5.70;99.90;;;;;;6250649;28;20487;-65
2022/12/31 04:08:35;;;;;;;7.03;6.30;;;5.80;99.90;;;;;;6250333;28;20467;-65
2022/12/31 04:11:39;;;;;;;6.70;6.00;;;5.70;99.90;;;;;;6250244;28;20472;-65
2022/12/31 04:14:42;;;;;;;7.77;6.70;;;5.70;99.90;;;;;;6250427;28;20470;-66
2022/12/31 04:17:45;;;;;;;8.60;6.17;;;5.70;99.90;;;;;;6254071;28;20470;-67
2022/12/31 04:20:50;;;;;;;8.23;6.87;;;5.70;99.90;;;;;;6274594;28;20478;-66
2022/12/31 04:23:53;;;;;;;7.20;6.30;;;5.70;99.90;;;;;;6274419;28;20474;-66
2022/12/31 04:26:56;;;;;;;7.67;6.87;;;5.70;99.90;;;;;;6265394;28;20929;-66
2022/12/31 04:30:08;;;;;;;18.70;11.70;;;5.70;99.90;;;;;;6274514;28;20482;-66
2022/12/31 04:33:11;;;;;;;15.50;11.73;;;5.60;99.90;;;;;;6274701;28;20477;-66
2022/12/31 04:36:16;;;;;;;14.23;11.37;;;5.50;99.90;;;;;;6274247;28;20465;-66
2022/12/31 04:39:19;;;;;;;17.43;13.07;;;5.40;99.90;;;;;;6274168;28;20555;-67
2022/12/31 04:42:23;;;;;;;17.83;11.63;;;5.30;99.90;;;;;;6274233;28;20470;-66
2022/12/31 04:45:26;;;;;;;17.00;13.33;;;5.30;99.90;;;;;;6274250;28;20474;-66
2022/12/31 04:48:29;;;;;;;14.23;11.43;;;5.30;99.90;;;;;;6274075;28;20478;-66
2022/12/31 04:51:34;;;;;;;16.57;13.30;;;5.30;99.90;;;;;;6274158;28;20488;-66
2022/12/31 04:54:37;;;;;;;15.07;12.03;;;5.30;99.90;;;;;;6274118;28;20471;-66
2022/12/31 04:57:42;;;;;;;9.43;8.40;;;5.30;99.90;;;;;;6271646;28;20470;-67
2022/12/31 05:00:48;;;;;;;8.03;7.27;;;5.40;99.90;;;;;;6249355;28;20471;-66
2022/12/31 05:03:51;;;;;;;11.23;8.20;;;5.40;99.90;;;;;;6249679;28;20550;-66
2022/12/31 05:06:56;;;;;;;10.53;9.13;;;5.40;99.90;;;;;;6251090;28;20479;-66
2022/12/31 05:09:59;;;;;;;10.40;9.00;;;5.40;99.90;;;;;;6253881;28;20577;-66
2022/12/31 05:13:02;;;;;;;13.70;8.27;;;5.50;99.90;;;;;;6253997;28;20485;-66
2022/12/31 05:16:07;;;;;;;13.50;11.40;;;5.50;99.90;;;;;;6254109;28;20463;-66
2022/12/31 05:19:10;;;;;;;12.90;10.70;;;5.50;99.90;;;;;;6269832;28;20469;-66
2022/12/31 05:22:30;;;;;;;11.00;8.87;;;5.40;99.90;;;;;;6278139;28;20470;-66
2022/12/31 05:25:34;;;;;;;12.97;9.87;;;5.30;99.90;;;;;;6278606;28;20467;-66
2022/12/31 05:28:37;;;;;;;28.27;15.30;;;5.20;99.90;;;;;;6278832;28;20481;-67
2022/12/31 05:31:41;;;;;;;14.37;10.17;;;5.10;99.90;;;;;;6273824;28;20478;-67
2022/12/31 05:34:44;;;;;;;9.30;8.40;;;5.00;99.90;;;;;;6277957;28;20478;-66
2022/12/31 05:37:49;;;;;;;16.93;12.80;;;5.00;99.90;;;;;;6278048;28;20969;-65
2022/12/31 05:40:59;;;;;;;14.73;10.50;;;5.20;99.90;;;;;;6277625;28;20462;-65
2022/12/31 05:44:03;;;;;;;16.60;11.47;;;5.30;99.90;;;;;;6277873;28;20709;-65
2022/12/31 05:47:06;;;;;;;11.03;7.77;;;5.40;99.90;;;;;;6277929;28;20450;-65
2022/12/31 05:50:12;;;;;;;9.93;8.33;;;5.50;99.90;;;;;;6279273;28;20481;-66
2022/12/31 05:53:16;;;;;;;8.57;6.80;;;5.60;99.90;;;;;;6279437;28;20423;-65
2022/12/31 05:56:20;;;;;;;9.87;7.50;;;5.60;99.90;;;;;;6279359;28;20454;-66
2022/12/31 05:59:23;;;;;;;11.13;6.33;;;5.60;99.90;;;;;;6262140;28;20474;-65
2022/12/31 06:02:26;;;;;;;9.83;6.77;;;5.60;99.90;;;;;;6254334;28;20463;-66
2022/12/31 06:05:29;;;;;;;9.57;7.40;;;5.60;99.90;;;;;;6253436;28;20474;-66
2022/12/31 06:08:34;;;;;;;7.80;6.53;;;5.70;99.90;;;;;;6252572;28;20482;-66
2022/12/31 06:11:37;;;;;;;8.40;6.57;;;5.90;99.90;;;;;;6252715;28;20471;-66
2022/12/31 06:14:40;;;;;;;7.80;6.20;;;6.00;99.90;;;;;;6252665;28;20487;-66
2022/12/31 06:17:47;;;;;;;7.40;6.20;;;6.00;99.90;;;;;;6255468;28;20497;-66
2022/12/31 06:20:51;;;;;;;6.87;6.17;;;6.10;99.90;;;;;;6277262;28;20485;-66
2022/12/31 06:23:55;;;;;;;6.87;5.90;;;6.20;99.90;;;;;;6276963;28;20477;-66
2022/12/31 06:26:59;;;;;;;7.17;5.73;;;6.20;99.90;;;;;;6277260;28;20478;-65
2022/12/31 06:30:02;;;;;;;6.87;5.77;;;6.20;99.90;;;;;;6277043;28;20481;-66
2022/12/31 06:33:05;;;;;;;6.00;5.43;;;6.20;99.90;;;;;;6272814;28;20466;-66
2022/12/31 06:36:12;;;;;;;10.30;6.00;;;6.30;99.90;;;;;;6276554;28;20485;-66
2022/12/31 06:39:16;;;;;;;9.27;6.67;;;6.30;99.90;;;;;;6276090;28;20474;-66
2022/12/31 06:42:20;;;;;;;6.03;5.43;;;6.40;99.90;;;;;;6276772;28;20474;-66
2022/12/31 06:45:23;;;;;;;8.53;6.00;;;6.30;99.90;;;;;;6276333;28;20477;-65
2022/12/31 06:48:26;;;;;;;7.07;5.83;;;6.30;99.90;;;;;;6277013;28;20475;-65
2022/12/31 06:51:32;;;;;;;6.80;5.80;;;6.40;99.90;;;;;;6278267;28;20564;-65
2022/12/31 06:54:37;;;;;;;6.10;5.20;;;6.30;99.90;;;;;;6276797;28;20466;-65
2022/12/31 06:57:42;;;;;;;7.20;6.07;;;6.30;99.90;;;;;;6276811;28;20474;-65
2022/12/31 07:00:55;;;;;;;8.27;6.10;;;6.30;99.90;;;;;;6257349;28;20473;-65
2022/12/31 07:04:08;;;;;;;6.70;6.00;;;6.30;99.90;;;;;;6251473;28;20467;-66
2022/12/31 07:07:20;;;;;;;8.73;6.40;;;6.20;99.90;;;;;;6251493;28;20472;-65
2022/12/31 07:10:36;;;;;;;6.87;6.20;;;6.20;99.90;;;;;;6251126;28;20792;-65
2022/12/31 07:13:54;;;;;;;9.20;5.73;;;6.30;99.90;;;;;;6251643;28;20847;-65
2022/12/31 07:17:06;;;;;;;7.33;6.33;;;6.40;99.90;;;;;;6250704;28;20550;-65
2022/12/31 07:20:12;;;;;;;7.00;6.03;;;6.40;99.90;;;;;;6274353;28;20454;-66
2022/12/31 07:23:16;;;;;;;6.23;5.50;;;6.50;99.90;;;;;;6275564;28;20438;-66
2022/12/31 07:26:33;;;;;;;7.37;5.93;;;6.50;99.90;;;;;;6275792;28;20519;-66
2022/12/31 07:29:47;;;;;;;11.40;9.17;;;6.60;99.90;;;;;;6274976;28;20493;-66
2022/12/31 07:33:19;;;;;;;13.73;10.20;;;6.60;99.90;;;;;;6275600;28;20482;-66
2022/12/31 07:36:53;;;;;;;17.73;13.23;;;6.40;99.90;;;;;;6275521;28;20470;-66
2022/12/31 07:40:03;;;;;;;15.90;13.07;;;6.30;99.90;;;;;;6275208;28;20942;-66
2022/12/31 07:43:15;;;;;;;15.57;12.67;;;6.30;99.90;;;;;;6275585;28;20470;-66
2022/12/31 07:46:26;;;;;;;19.27;12.03;;;6.20;99.90;;;;;;6260482;28;20482;-66
2022/12/31 07:49:31;;;;;;;16.07;12.70;;;6.30;99.90;;;;;;6249117;28;20502;-66
2022/12/31 07:52:34;;;;;;;14.67;11.97;;;6.30;99.90;;;;;;6248853;28;20471;-67
2022/12/31 07:55:38;;;;;;;15.73;12.97;;;6.40;99.90;;;;;;6249108;28;20474;-66
2022/12/31 07:58:57;;;;;;;13.63;12.23;;;6.50;99.90;;;;;;6248646;28;20486;-66
2022/12/31 08:02:07;;;;;;;13.87;12.53;;;6.50;99.90;;;;;;6249274;28;20947;-67
2022/12/31 08:05:18;;;;;;;17.87;13.80;;;6.50;99.90;;;;;;6250022;28;20432;-66
2022/12/31 08:08:34;;;;;;;14.93;12.70;;;6.50;99.90;;;;;;6249796;28;20467;-66
2022/12/31 08:11:47;;;;;;;16.60;13.10;;;6.60;99.90;;;;;;6250335;28;20525;-66
2022/12/31 08:14:52;;;;;;;13.13;11.63;;;6.40;99.90;;;;;;6250242;28;20478;-66
2022/12/31 08:17:56;;;;;;;12.13;11.00;;;6.20;99.90;;;;;;6255157;28;20471;-66
2022/12/31 08:21:22;;;;;;;14.33;12.23;;;6.30;99.90;;;;;;6274869;28;20957;-66
2022/12/31 08:24:35;;;;;;;16.67;11.83;;;6.40;99.90;;;;;;6274432;28;21006;-66
2022/12/31 08:27:45;;;;;;;14.60;11.10;;;6.30;99.90;;;;;;6274594;28;20478;-65
2022/12/31 08:30:58;;;;;;;11.73;10.50;;;6.30;99.90;;;;;;6274771;28;20493;-66
2022/12/31 08:34:08;;;;;;;15.03;10.70;;;6.40;99.90;;;;;;6274611;28;20492;-67
2022/12/31 08:37:18;;;;;;;17.37;11.60;;;6.50;99.90;;;;;;6259656;28;20768;-65
2022/12/31 08:40:26;;;;;;;14.03;10.60;;;6.70;99.90;;;;;;6250103;28;20475;-66
2022/12/31 08:43:43;;;;;;;12.40;10.40;;;6.90;99.90;;;;;;6244645;28;20474;-67
2022/12/31 08:46:53;;;;;;;11.53;10.30;;;7.10;99.90;;;;;;6253077;28;20471;-67
2022/12/31 08:49:57;;;;;;;13.83;11.00;;;7.20;99.90;;;;;;6252102;28;20963;-66
2022/12/31 08:53:01;;;;;;;12.47;10.80;;;7.30;99.90;;;;;;6253126;28;20907;-66
2022/12/31 08:56:12;;;;;;;12.20;10.90;;;7.40;99.90;;;;;;6252824;28;20517;-66
2022/12/31 08:59:29;;;;;;;15.63;12.13;;;7.60;99.90;;;;;;6253864;28;20939;-67
2022/12/31 09:03:04;;;;;;;15.50;11.97;;;7.70;99.90;;;;;;6255888;28;20479;-66
2022/12/31 09:06:19;;;;;;;14.87;12.90;;;7.80;99.90;;;;;;6232168;28;20493;-66
2022/12/31 09:09:31;;;;;;;17.23;11.80;;;7.90;99.90;;;;;;6248344;28;20475;-66
2022/12/31 09:12:38;;;;;;;15.13;12.47;;;7.90;99.90;;;;;;6253990;28;20947;-66
2022/12/31 09:15:46;;;;;;;13.90;12.13;;;8.00;99.90;;;;;;6248474;28;20471;-66
2022/12/31 09:18:51;;;;;;;16.00;13.33;;;8.00;99.90;;;;;;6253967;28;20475;-66
2022/12/31 09:21:54;;;;;;;14.00;11.63;;;8.10;99.90;;;;;;6253545;28;20475;-66
2022/12/31 09:24:58;;;;;;;15.10;12.67;;;8.10;99.90;;;;;;6253267;28;20482;-66
2022/12/31 09:28:13;;;;;;;15.20;13.70;;;8.20;99.90;;;;;;6253748;28;20801;-66
2022/12/31 09:31:21;;;;;;;17.47;13.43;;;8.20;99.90;;;;;;6253096;28;20809;-67
2022/12/31 09:34:32;;;;;;;17.33;12.37;;;8.20;99.90;;;;;;6253130;28;20566;-66
2022/12/31 09:37:40;;;;;;;14.37;11.83;;;8.20;99.90;;;;;;6252887;28;20467;-66
2022/12/31 09:40:52;;;;;;;11.00;9.90;;;8.30;99.90;;;;;;6253216;28;20471;-66
2022/12/31 09:44:40;;;;;;;13.57;9.70;;;8.40;99.90;;;;;;6253224;28;20475;-66
2022/12/31 09:48:26;;;;;;;10.23;9.23;;;8.40;99.90;;;;;;6252438;28;20479;-66
2022/12/31 09:51:32;;;;;;;10.73;9.33;;;8.50;99.90;;;;;;6253970;28;20478;-66
2022/12/31 09:54:52;;;;;;;10.30;7.70;;;8.60;99.90;;;;;;6260863;28;20466;-65
2022/12/31 09:58:07;;;;;;;33.77;30.00;;;8.70;99.90;;;;;;6274221;28;20499;-66
2022/12/31 10:01:22;;;;;;;14.10;11.90;;;8.70;99.90;;;;;;6257690;28;20460;-66
2022/12/31 10:04:48;;;;;;;8.90;7.70;;;8.90;99.90;;;;;;6250213;28;20471;-66
2022/12/31 10:07:59;;;;;;;9.10;7.10;;;8.90;99.90;;;;;;6250767;28;20475;-66
2022/12/31 10:11:09;;;;;;;12.10;7.10;;;9.00;99.90;;;;;;6249388;28;20508;-66
2022/12/31 10:14:35;;;;;;;9.90;8.90;;;9.10;99.90;;;;;;6252173;28;21074;-65
2022/12/31 10:17:58;;;;;;;19.50;14.37;;;9.20;99.90;;;;;;6250488;28;20487;-65
2022/12/31 10:21:25;;;;;;;33.40;19.57;;;9.30;99.90;;;;;;6248964;28;20951;-65
2022/12/31 10:24:58;;;;;;;26.17;15.37;;;9.40;99.90;;;;;;6247394;28;20810;-65
2022/12/31 10:28:14;;;;;;;45.37;29.20;;;9.50;99.90;;;;;;6246768;28;20471;-65
2022/12/31 10:31:38;;;;;;;9.30;8.40;;;9.50;99.90;;;;;;6251831;28;20498;-65
2022/12/31 10:34:53;;;;;;;9.70;7.07;;;9.60;99.90;;;;;;6246595;28;20471;-65
2022/12/31 10:38:06;;;;;;;7.57;5.10;;;9.60;99.90;;;;;;6251324;28;20475;-66
2022/12/31 10:41:53;;;;;;;5.73;4.93;;;9.60;99.90;;;;;;6250333;28;20454;-66
2022/12/31 10:45:34;;;;;;;13.20;5.10;;;9.70;99.90;;;;;;6250654;28;20467;-66
2022/12/31 10:49:09;;;;;;;5.43;4.50;;;9.90;99.90;;;;;;6224537;28;20935;-66
2022/12/31 10:53:04;;;;;;;6.90;5.10;;;10.00;99.90;;;;;;6249846;28;20532;-66
2022/12/31 10:56:40;;;;;;;5.93;4.93;;;10.30;99.90;;;;;;6249350;28;20454;-66
2022/12/31 11:00:16;;;;;;;6.23;5.63;;;10.50;99.90;;;;;;6251089;28;20800;-66
2022/12/31 11:03:56;;;;;;;4.90;4.37;;;10.70;99.90;;;;;;6250328;28;20459;-66
2022/12/31 11:07:37;;;;;;;5.77;4.80;;;11.00;99.70;;;;;;6251070;28;20997;-66
2022/12/31 11:11:14;;;;;;;10.83;6.97;;;11.20;99.40;;;;;;6247686;28;20471;-66
2022/12/31 11:14:47;;;;;;;8.37;6.23;;;11.50;99.10;;;;;;6250461;28;20520;-66
2022/12/31 11:18:02;;;;;;;7.27;5.77;;;11.90;98.70;;;;;;6221654;28;20986;-66
2022/12/31 11:21:24;;;;;;;6.10;5.00;;;12.20;97.90;;;;;;6248261;28;20463;-67
2022/12/31 11:24:42;;;;;;;8.30;4.90;;;12.50;97.00;;;;;;6251119;28;20935;-67
2022/12/31 11:28:10;;;;;;;6.73;4.97;;;13.10;96.00;;;;;;6250912;28;20471;-65
2022/12/31 11:31:28;;;;;;;4.93;4.40;;;13.40;95.30;;;;;;6250516;28;20479;-66
2022/12/31 11:34:52;;;;;;;6.83;4.80;;;13.50;94.30;;;;;;6248620;28;21010;-66
2022/12/31 11:38:09;;;;;;;11.53;5.60;;;13.60;94.00;;;;;;6249209;28;20471;-66
2022/12/31 11:41:21;;;;;;;4.00;3.60;;;14.00;93.30;;;;;;6249882;28;20741;-65
2022/12/31 11:44:36;;;;;;;4.03;3.63;;;15.00;92.40;;;;;;6224963;28;20472;-65
2022/12/31 11:47:54;;;;;;;5.90;4.70;;;17.30;89.50;;;;;;6224236;28;20476;-65
2022/12/31 11:51:39;;;;;;;5.23;3.63;;;19.20;77.40;;;;;;6238246;28;20540;-66
2022/12/31 11:55:09;;;;;;;5.83;4.27;;;21.90;66.20;;;;;;6249784;28;20275;-66
2022/12/31 11:58:15;;;;;;;12.87;11.53;;;24.10;55.00;;;;;;6249111;28;20233;-65
2022/12/31 12:01:22;;;;;;;12.43;11.20;;;26.20;45.20;;;;;;6249701;28;20235;-66
2022/12/31 12:04:26;;;;;;;11.33;9.83;;;26.90;40.50;;;;;;6250617;28;20242;-64
2022/12/31 12:07:32;;;;;;;16.17;12.47;;;25.70;40.00;;;;;;6248690;28;20230;-65
2022/12/31 12:10:41;;;;;;;16.13;14.57;;;24.00;41.40;;;;;;6248302;28;20250;-65
2022/12/31 12:13:44;;;;;;;16.10;14.57;;;22.50;43.30;;;;;;6267931;28;20232;-65
2022/12/31 12:16:52;;;;;;;15.40;13.73;;;21.50;45.10;;;;;;6258639;28;20219;-65
2022/12/31 12:20:03;;;;;;;20.17;18.33;;;20.70;46.60;;;;;;6253707;28;20303;-66
2022/12/31 12:23:17;;;;;;;19.30;16.40;;;19.70;48.40;;;;;;6253970;28;20201;-66
2022/12/31 12:26:29;;;;;;;18.73;16.83;;;18.80;50.60;;;;;;6252912;28;20620;-66
2022/12/31 12:29:35;;;;;;;21.03;15.77;;;17.70;53.30;;;;;;6251593;28;20467;-65
2022/12/31 12:32:38;;;;;;;14.33;12.57;;;17.20;55.40;;;;;;6254024;28;20470;-65
2022/12/31 12:35:41;;;;;;;14.27;12.80;;;16.90;56.30;;;;;;6254062;28;20477;-66
2022/12/31 12:38:46;;;;;;;13.43;12.03;;;16.60;57.70;;;;;;6253470;28;20851;-65
2022/12/31 12:42:02;;;;;;;14.20;12.40;;;16.40;58.70;;;;;;6253810;28;20463;-64
2022/12/31 12:45:14;;;;;;;12.90;11.53;;;16.40;58.20;;;;;;6253994;28;20481;-63
2022/12/31 12:48:29;;;;;;;13.00;11.70;;;16.30;58.80;;;;;;6255409;28;20513;-63
2022/12/31 12:51:44;;;;;;;16.80;13.37;;;16.10;59.40;;;;;;6256074;28;20950;-66
2022/12/31 12:55:05;;;;;;;13.77;11.40;;;15.60;61.30;;;;;;6254608;28;20475;-66
2022/12/31 12:58:18;;;;;;;15.00;13.10;;;15.10;63.20;;;;;;6245761;28;20793;-66
2022/12/31 13:01:30;;;;;;;16.00;12.63;;;14.80;64.90;;;;;;6254053;28;20471;-66
2022/12/31 13:04:47;;;;;;;12.47;11.17;;;14.50;66.40;;;;;;6253946;28;20478;-65
2022/12/31 13:08:02;;;;;;;17.43;13.30;;;14.30;67.80;;;;;;6253771;28;20486;-65
2022/12/31 13:11:24;;;;;;;17.77;12.07;;;14.10;69.40;;;;;;6254048;28;20451;-65
2022/12/31 13:14:34;;;;;;;15.17;11.40;;;14.10;70.30;;;;;;6254106;28;20548;-65
2022/12/31 13:17:57;;;;;;;17.20;12.80;;;14.10;71.70;;;;;;6257246;28;20474;-67
2022/12/31 13:21:18;;;;;;;14.00;11.03;;;16.40;71.00;;;;;;6252463;28;20475;-66
2022/12/31 13:24:35;;;;;;;16.00;11.50;;;20.00;59.90;;;;;;6229445;28;20468;-68
2022/12/31 13:27:43;;;;;;;14.93;10.93;;;22.70;51.60;;;;;;6252140;28;20229;-67
2022/12/31 13:30:50;;;;;;;14.93;12.13;;;24.40;47.10;;;;;;6260046;28;20228;-68
2022/12/31 13:33:59;;;;;;;13.63;12.20;;;24.30;44.50;;;;;;6268068;28;20232;-69
2022/12/31 13:37:06;;;;;;;14.73;12.40;;;23.30;45.30;;;;;;6260795;28;20235;-67
2022/12/31 13:40:19;;;;;;;16.83;12.47;;;23.90;45.50;;;;;;6254511;28;20224;-66
2022/12/31 13:43:34;;;;;;;15.60;13.43;;;25.30;42.70;;;;;;6253495;28;20232;-67
2022/12/31 13:46:42;;;;;;;14.90;13.50;;;26.30;40.70;;;;;;6253540;28;20229;-67
2022/12/31 13:49:51;;;;;;;22.60;18.80;;;27.10;37.70;;;;;;6252472;28;20244;-67
2022/12/31 13:52:58;;;;;;;20.80;15.10;;;27.60;37.10;;;;;;6252619;28;20561;-65
2022/12/31 13:56:06;;;;;;;19.37;14.43;;;28.10;35.60;;;;;;6252583;28;20235;-66
2022/12/31 13:59:16;;;;;;;15.43;13.93;;;28.40;34.70;;;;;;6248477;28;20224;-66
2022/12/31 14:02:31;;;;;;;16.43;14.73;;;28.60;33.70;;;;;;6253624;28;20218;-66
2022/12/31 14:05:38;;;;;;;15.47;14.07;;;28.90;33.10;;;;;;6253819;28;20223;-66
2022/12/31 14:08:41;;;;;;;16.13;14.50;;;29.10;32.00;;;;;;6253261;28;20230;-66
2022/12/31 14:12:02;;;;;;;15.00;13.33;;;29.10;32.00;;;;;;6258742;28;20228;-66
2022/12/31 14:15:16;;;;;;;16.43;14.70;;;29.00;31.60;;;;;;6270523;28;20228;-66
2022/12/31 14:18:27;;;;;;;14.47;12.97;;;28.60;31.70;;;;;;6256924;28;20305;-66
2022/12/31 14:21:37;;;;;;;15.17;13.67;;;28.00;32.10;;;;;;6253551;28;20231;-66
2022/12/31 14:24:45;;;;;;;18.90;15.47;;;27.20;32.90;;;;;;6252855;28;20290;-66
2022/12/31 14:27:52;;;;;;;22.87;20.87;;;26.10;34.40;;;;;;6252578;28;20228;-66
2022/12/31 14:31:04;;;;;;;17.53;16.00;;;24.90;35.90;;;;;;6254035;28;20231;-67
2022/12/31 14:34:15;;;;;;;21.00;18.90;;;23.60;37.50;;;;;;6254098;28;20239;-67
2022/12/31 14:37:29;;;;;;;16.80;14.80;;;22.30;39.30;;;;;;6252181;28;20228;-65
2022/12/31 14:40:45;;;;;;;14.23;12.73;;;21.10;41.40;;;;;;6251839;28;20264;-66
2022/12/31 14:44:00;;;;;;;18.00;11.60;;;19.90;43.30;;;;;;6254106;28;20311;-67
2022/12/31 14:47:16;;;;;;;14.73;11.13;;;18.70;45.20;;;;;;6253184;28;20219;-65
2022/12/31 14:50:24;;;;;;;10.33;9.33;;;17.70;47.40;;;;;;6253080;28;20435;-67
2022/12/31 14:53:29;;;;;;;12.50;11.20;;;16.90;49.30;;;;;;6251663;28;20464;-67
2022/12/31 14:56:40;;;;;;;11.93;10.73;;;16.20;51.30;;;;;;6251576;28;20474;-65
2022/12/31 14:59:54;;;;;;;12.20;11.00;;;15.50;53.70;;;;;;6253113;28;20470;-67
2022/12/31 15:03:01;;;;;;;17.33;11.80;;;14.90;55.00;;;;;;6246563;28;20474;-66
2022/12/31 15:06:18;;;;;;;15.53;11.33;;;14.60;56.10;;;;;;6249910;28;20475;-66
2022/12/31 15:09:50;;;;;;;17.27;11.97;;;14.20;57.80;;;;;;6250410;28;20531;-66
2022/12/31 15:13:05;;;;;;;16.87;11.07;;;13.80;59.80;;;;;;6250525;28;20985;-66
2022/12/31 15:16:32;;;;;;;15.83;13.70;;;13.50;62.00;;;;;;6249738;28;20471;-65
2022/12/31 15:20:15;;;;;;;19.17;13.40;;;13.20;64.10;;;;;;6251573;28;20491;-65
2022/12/31 15:23:23;;;;;;;18.30;13.60;;;12.90;66.30;;;;;;6251781;28;20669;-66
2022/12/31 15:26:30;;;;;;;20.20;12.80;;;12.80;68.00;;;;;;6251750;28;20455;-65
2022/12/31 15:29:36;;;;;;;19.20;13.67;;;12.60;69.90;;;;;;6251531;28;20503;-65
2022/12/31 15:32:42;;;;;;;16.80;14.13;;;12.30;71.90;;;;;;6250445;28;20798;-67
2022/12/31 15:35:51;;;;;;;19.90;14.60;;;12.20;73.40;;;;;;6252194;28;20467;-67
2022/12/31 15:39:06;;;;;;;17.17;12.97;;;12.00;75.10;;;;;;6250273;28;20489;-66
2022/12/31 15:42:35;;;;;;;17.17;13.13;;;11.90;76.50;;;;;;6249528;28;20475;-66
2022/12/31 15:45:43;;;;;;;14.07;12.00;;;11.70;78.80;;;;;;6249013;28;20482;-68
2022/12/31 15:48:51;;;;;;;14.23;11.27;;;11.60;81.30;;;;;;6248443;28;20490;-66
2022/12/31 15:52:04;;;;;;;14.60;11.10;;;11.40;83.10;;;;;;6248655;28;20969;-68
2022/12/31 15:55:14;;;;;;;13.07;10.77;;;11.20;85.00;;;;;;6249611;28;20490;-67
2022/12/31 15:58:20;;;;;;;12.60;10.63;;;11.10;87.40;;;;;;6250010;28;20494;-66
2022/12/31 16:01:28;;;;;;;17.17;11.93;;;10.90;89.90;;;;;;6250130;28;20962;-67
2022/12/31 16:04:32;;;;;;;16.30;11.23;;;10.80;91.00;;;;;;6249834;28;20470;-67
2022/12/31 16:07:38;;;;;;;14.40;11.87;;;10.80;92.10;;;;;;6248667;28;20493;-66
2022/12/31 16:10:44;;;;;;;17.73;11.40;;;10.70;92.80;;;;;;6249219;28;20542;-67
2022/12/31 16:13:50;;;;;;;19.50;14.37;;;10.60;93.60;;;;;;6249444;28;20479;-66
2022/12/31 16:16:56;;;;;;;17.00;13.33;;;10.50;94.40;;;;;;6254396;28;20467;-65
2022/12/31 16:20:01;;;;;;;14.10;12.60;;;10.50;94.90;;;;;;6256107;28;20463;-67
2022/12/31 16:23:21;;;;;;;18.73;15.73;;;10.50;95.30;;;;;;6251602;28;20536;-66
2022/12/31 16:26:30;;;;;;;22.73;15.07;;;10.40;95.60;;;;;;6249774;28;20461;-68
2022/12/31 16:29:35;;;;;;;18.63;15.10;;;10.40;95.80;;;;;;6251539;28;20997;-66
2022/12/31 16:32:39;;;;;;;18.60;16.33;;;10.30;96.10;;;;;;6254593;28;20468;-65